Narathiwat Airport
VTSC : now visible

Airfield :











YOU CAN JOIN US ON...

 
LOGIN :

Register | Disclaimer

   EN    FR    IT 

 









Legend :    VFR   Marginal VFR   IFR   Intensive IFR   Very Intensive IFR
Visi :
Ceiling :
>= 8 km
>= 3000ft
5 to 8 km
1000 to 3000 ft
1500m to 5 km
500 to 1000 ft
800 to 1500m
200 to 500 ft
< 800m
< 200 ft
Symbols :   Thunderstorms  Fog  Heavy snow  Heavy precipitations  Wind > 20 kt






- Airport Elevation : 16 ft
- IATA code : NAW


VTSC - Narathiwat

CURRENT METAR :
  • 050000Z 20003KT 9999 FEW020 25/25 Q1011 NOSIG

TAF TAF VTSC
Valid from the 05 at 00:00 until the 06 at 00:00 UTC


042300Z 0500/0524 19004KT 9999 SCT020 SCT100
TEMPO 0500/0503 5000 RA SCT015 BKN100
BECMG 0503/0505 08010KT
TEMPO 0505/0511 VRB10G20KT 5000 TSRA FEW016CB SCT018 BKN100
BECMG 0516/0518 18004KT



MET'MAP, your aeronautical weather chart ! - Copyright ORBIFLY December 2007 - Disclaimer

ORBIFLY MET'MAP TEAM :

Programming & Development : Alexandra Zaïnal
Concept & original design : Baudouin d'Aumeries
Assistance for programming : Marc-Olivier Méhu
Technical & hardware support : Manuel Goepfert

Contact : metmap@orbifly.com




SOURCES & CREDITS :

   NOAA       Earth
Advisory